createdAt,value
2018-07-22T00:01:09.206Z,92.40
2018-07-22T00:03:37.585Z,91.70
2018-07-22T00:06:05.938Z,92.10
2018-07-22T00:08:34.312Z,91.90
2018-07-22T00:11:02.718Z,92.10
2018-07-22T00:13:31.107Z,91.80
2018-07-22T00:15:59.504Z,92.10
2018-07-22T00:18:27.881Z,91.60
2018-07-22T00:20:56.158Z,91.70
2018-07-22T00:23:24.558Z,91.80
2018-07-22T00:25:52.911Z,93.00
2018-07-22T00:28:21.248Z,93.00
2018-07-22T00:30:49.589Z,92.70
2018-07-22T00:33:17.951Z,92.70
2018-07-22T00:35:46.391Z,93.10
2018-07-22T00:38:14.790Z,92.70
2018-07-22T00:43:11.460Z,93.50
2018-07-22T00:45:39.779Z,92.70
2018-07-22T00:48:08.069Z,92.70
2018-07-22T00:50:36.461Z,93.20
2018-07-22T00:53:05.000Z,93.50
2018-07-22T00:55:33.361Z,93.50
2018-07-22T00:58:01.709Z,93.00
2018-07-22T01:00:30.127Z,93.30
2018-07-22T01:02:58.595Z,92.90
2018-07-22T01:05:27.172Z,92.50
2018-07-22T01:07:55.632Z,92.10
2018-07-22T01:10:23.970Z,91.80
2018-07-22T01:12:52.683Z,91.60
2018-07-22T01:15:21.081Z,91.50
2018-07-22T01:17:49.425Z,91.90
2018-07-22T01:20:17.746Z,91.90
2018-07-22T01:22:46.191Z,91.60
2018-07-22T01:25:14.501Z,91.90
2018-07-22T01:27:42.831Z,91.30
2018-07-22T01:30:11.369Z,90.80
2018-07-22T01:32:39.977Z,91.10
2018-07-22T01:35:08.637Z,91.20
2018-07-22T01:37:37.054Z,91.90
2018-07-22T01:40:05.834Z,91.60
2018-07-22T01:42:35.125Z,91.60
2018-07-22T01:45:03.521Z,91.50
2018-07-22T01:52:28.966Z,90.90
2018-07-22T01:54:57.362Z,91.30
2018-07-22T01:57:26.618Z,91.20
2018-07-22T01:59:54.960Z,92.10
2018-07-22T02:02:23.441Z,92.00
2018-07-22T02:04:51.756Z,92.30
2018-07-22T02:07:20.193Z,92.30
2018-07-22T02:09:48.545Z,92.30
2018-07-22T02:12:16.905Z,91.90
2018-07-22T02:17:13.455Z,92.30
2018-07-22T02:19:41.747Z,91.90
2018-07-22T02:22:10.164Z,91.90
2018-07-22T02:24:38.500Z,91.50
2018-07-22T02:27:07.677Z,91.20
2018-07-22T02:29:36.040Z,91.50
2018-07-22T02:32:04.382Z,91.30
2018-07-22T02:34:32.679Z,91.40
2018-07-22T02:37:01.082Z,91.10
2018-07-22T02:39:29.390Z,91.40
2018-07-22T02:41:57.737Z,91.60
2018-07-22T02:44:26.077Z,91.70
2018-07-22T02:46:54.407Z,92.00
2018-07-22T02:49:22.746Z,92.00
2018-07-22T02:51:51.118Z,92.20
2018-07-22T02:54:19.487Z,91.60
2018-07-22T02:56:47.818Z,91.70
2018-07-22T02:59:16.233Z,91.50
2018-07-22T03:01:44.666Z,91.00
2018-07-22T03:04:12.991Z,90.80
2018-07-22T03:06:41.310Z,91.10
2018-07-22T03:09:10.186Z,90.80
2018-07-22T03:11:38.727Z,90.50
2018-07-22T03:14:07.204Z,90.80
2018-07-22T03:16:35.528Z,90.80
2018-07-22T03:19:04.009Z,90.70
2018-07-22T03:21:32.533Z,90.70
2018-07-22T03:24:00.851Z,90.80
2018-07-22T03:26:29.208Z,90.90
2018-07-22T03:28:57.788Z,90.60
2018-07-22T03:31:26.170Z,91.60
2018-07-22T03:33:54.559Z,91.60
2018-07-22T03:36:22.912Z,91.40
2018-07-22T03:38:51.246Z,92.00
2018-07-22T03:41:19.582Z,91.00
2018-07-22T03:43:47.864Z,91.80
2018-07-22T03:46:16.250Z,91.90
2018-07-22T03:48:44.586Z,91.90
2018-07-22T03:51:12.946Z,92.10
2018-07-22T03:53:41.335Z,92.20
2018-07-22T03:56:09.688Z,91.60
2018-07-22T03:58:38.010Z,91.30
2018-07-22T04:01:06.541Z,91.00
2018-07-22T04:06:03.150Z,91.60
2018-07-22T04:08:31.533Z,91.40
2018-07-22T04:10:59.857Z,91.70
2018-07-22T04:13:28.301Z,92.10
2018-07-22T04:15:56.683Z,91.80
2018-07-22T04:18:25.067Z,91.60
2018-07-22T04:20:53.555Z,91.50
2018-07-22T04:25:50.125Z,91.30
2018-07-22T04:28:18.497Z,90.70
2018-07-22T04:30:46.818Z,91.10
2018-07-22T04:33:15.139Z,91.40
2018-07-22T04:38:12.148Z,91.00
2018-07-22T04:40:40.478Z,90.70
2018-07-22T04:43:08.975Z,90.70
2018-07-22T04:45:37.317Z,90.70
2018-07-22T04:48:05.772Z,90.70
2018-07-22T04:50:34.201Z,90.80
2018-07-22T04:55:30.709Z,90.70
2018-07-22T04:57:59.064Z,90.20
2018-07-22T05:00:27.477Z,90.20
2018-07-22T05:05:24.097Z,89.60
2018-07-22T05:07:53.198Z,88.70
2018-07-22T05:10:21.562Z,89.00
2018-07-22T05:12:49.939Z,89.40
2018-07-22T05:15:18.339Z,88.50
2018-07-22T05:17:46.721Z,87.80
2018-07-22T05:20:15.149Z,87.60
2018-07-22T05:22:43.540Z,87.20
2018-07-22T05:25:11.949Z,88.10
2018-07-22T05:27:40.260Z,88.20
2018-07-22T05:30:08.636Z,89.70
2018-07-22T05:35:05.159Z,90.70
2018-07-22T05:37:33.506Z,90.70
2018-07-22T05:40:01.870Z,88.80
2018-07-22T05:42:30.237Z,88.80
2018-07-22T05:44:58.585Z,88.80
2018-07-22T05:49:55.100Z,86.40
2018-07-22T05:52:23.445Z,87.60
2018-07-22T05:54:51.848Z,88.30
2018-07-22T05:57:20.259Z,87.40
2018-07-22T05:59:48.737Z,85.70
2018-07-22T06:02:17.214Z,84.20
2018-07-22T06:04:45.548Z,84.20
2018-07-22T06:07:13.885Z,84.80
2018-07-22T06:12:10.838Z,81.20
2018-07-22T06:14:39.225Z,83.10
2018-07-22T06:17:07.589Z,83.00
2018-07-22T06:22:05.062Z,78.10
2018-07-22T06:27:01.653Z,78.50
2018-07-22T06:29:29.964Z,78.30
2018-07-22T06:31:58.331Z,77.80
2018-07-22T06:34:26.752Z,78.60
2018-07-22T06:36:55.084Z,78.60
2018-07-22T06:39:23.449Z,78.40
2018-07-22T06:41:51.817Z,78.00
2018-07-22T06:44:20.461Z,78.40
2018-07-22T06:46:48.874Z,77.10
2018-07-22T06:49:17.166Z,76.00
2018-07-22T06:51:45.529Z,77.40
2018-07-22T06:54:13.838Z,78.80
2018-07-22T06:56:42.197Z,76.00
2018-07-22T06:59:10.522Z,78.50
2018-07-22T07:01:39.384Z,77.90
2018-07-22T07:04:07.768Z,78.50
2018-07-22T07:06:36.133Z,76.00
2018-07-22T07:09:08.509Z,75.30
2018-07-22T07:11:36.910Z,73.70
2018-07-22T07:14:05.350Z,72.80
2018-07-22T07:16:33.680Z,73.80
2018-07-22T07:21:30.309Z,74.00
2018-07-22T07:23:58.661Z,72.70
2018-07-22T07:26:26.995Z,71.40
2018-07-22T07:28:55.385Z,71.90
2018-07-22T07:31:23.836Z,71.70
2018-07-22T07:33:52.176Z,72.40
2018-07-22T07:36:20.802Z,72.80
2018-07-22T07:38:49.201Z,73.10
2018-07-22T07:41:17.522Z,71.60
2018-07-22T07:43:46.011Z,71.00
2018-07-22T07:46:14.389Z,71.10
2018-07-22T07:48:42.929Z,72.00
2018-07-22T07:51:11.373Z,72.90
2018-07-22T07:58:36.336Z,72.00
2018-07-22T08:01:05.142Z,72.50
2018-07-22T08:03:33.561Z,72.20
2018-07-22T08:06:02.064Z,71.60
2018-07-22T08:08:30.582Z,71.00
2018-07-22T08:10:58.992Z,71.60
2018-07-22T08:13:27.387Z,71.40
2018-07-22T08:15:56.100Z,70.80
2018-07-22T08:18:24.547Z,70.70
2018-07-22T08:23:21.194Z,72.10
2018-07-22T08:25:49.628Z,70.90
2018-07-22T08:28:34.738Z,71.10
2018-07-22T08:31:03.234Z,71.00
2018-07-22T08:33:31.620Z,70.20
2018-07-22T08:36:00.155Z,70.00
2018-07-22T08:38:28.573Z,70.30
2018-07-22T08:40:57.198Z,70.60
2018-07-22T08:43:25.592Z,69.10
2018-07-22T08:45:54.022Z,70.00
2018-07-22T08:48:22.502Z,69.00
2018-07-22T08:50:51.069Z,67.10
2018-07-22T08:53:19.544Z,67.00
2018-07-22T08:55:47.878Z,66.80
2018-07-22T08:58:16.293Z,66.70
2018-07-22T09:00:44.670Z,66.30
2018-07-22T09:03:13.093Z,65.80
2018-07-22T09:05:41.642Z,65.20
2018-07-22T09:08:10.203Z,66.40
2018-07-22T09:13:06.870Z,65.50
2018-07-22T09:15:35.341Z,64.10
2018-07-22T09:20:32.002Z,63.70
2018-07-22T09:23:00.475Z,62.70
2018-07-22T09:25:28.940Z,62.30
2018-07-22T09:27:57.354Z,63.10
2018-07-22T09:30:25.878Z,61.50
2018-07-22T09:32:54.412Z,63.70
2018-07-22T09:35:22.768Z,63.90
2018-07-22T09:37:51.142Z,64.20
2018-07-22T09:42:47.955Z,63.80
2018-07-22T09:45:16.441Z,63.20
2018-07-22T09:47:44.850Z,62.00
2018-07-22T09:50:14.732Z,62.50
2018-07-22T09:52:43.123Z,63.10
2018-07-22T09:55:11.559Z,63.00
2018-07-22T09:57:39.986Z,61.50
2018-07-22T10:00:08.461Z,61.90
2018-07-22T10:02:36.925Z,60.70
2018-07-22T10:05:05.367Z,58.80
2018-07-22T10:07:33.775Z,57.80
2018-07-22T10:10:02.155Z,59.20
2018-07-22T10:12:30.544Z,59.00
2018-07-22T10:14:58.976Z,57.80
2018-07-22T10:17:27.359Z,59.20
2018-07-22T10:19:55.822Z,59.00
2018-07-22T10:22:24.349Z,58.50
2018-07-22T10:24:52.831Z,57.50
2018-07-22T10:27:21.175Z,56.90
2018-07-22T10:29:49.570Z,58.30
2018-07-22T10:32:18.605Z,58.10
2018-07-22T10:34:46.946Z,58.50
2018-07-22T10:37:15.376Z,58.50
2018-07-22T10:39:43.759Z,58.40
2018-07-22T10:47:08.790Z,57.30
2018-07-22T10:49:37.261Z,57.50
2018-07-22T10:54:34.113Z,57.00
2018-07-22T10:59:30.749Z,57.10
2018-07-22T11:01:59.137Z,56.10
2018-07-22T11:06:55.776Z,57.10
2018-07-22T11:09:24.200Z,57.20
2018-07-22T11:11:52.617Z,57.30
2018-07-22T11:14:21.203Z,56.70
2018-07-22T11:16:49.697Z,56.70
2018-07-22T11:19:18.069Z,57.20
2018-07-22T11:24:14.787Z,57.20
2018-07-22T11:26:43.354Z,57.20
2018-07-22T11:29:11.758Z,57.20
2018-07-22T11:31:40.202Z,57.90
2018-07-22T11:34:08.607Z,56.80
2018-07-22T11:36:37.042Z,57.30
2018-07-22T11:39:09.829Z,56.70
2018-07-22T11:41:39.245Z,57.20
2018-07-22T11:44:08.146Z,57.20
2018-07-22T11:46:37.637Z,57.10
2018-07-22T11:49:07.511Z,58.20
2018-07-22T11:51:36.626Z,59.20
2018-07-22T11:56:33.474Z,59.60
2018-07-22T11:59:01.921Z,60.50
2018-07-22T12:01:30.397Z,60.20
2018-07-22T12:03:58.777Z,59.60
2018-07-22T12:06:27.231Z,59.70
2018-07-22T12:08:55.649Z,59.80
2018-07-22T12:11:24.045Z,59.00
2018-07-22T12:13:52.390Z,58.70
2018-07-22T12:16:20.724Z,58.00
2018-07-22T12:18:49.193Z,58.20
2018-07-22T12:21:17.697Z,56.00
2018-07-22T12:23:46.077Z,56.30
2018-07-22T12:26:14.532Z,56.70
2018-07-22T12:28:42.917Z,56.50
2018-07-22T12:31:11.361Z,57.20
2018-07-22T12:33:39.798Z,57.30
2018-07-22T12:36:09.194Z,57.50
2018-07-22T12:38:37.586Z,57.60
2018-07-22T12:41:06.035Z,57.90
2018-07-22T12:43:34.463Z,58.80
2018-07-22T12:46:03.375Z,58.70
2018-07-22T12:48:31.801Z,58.50
2018-07-22T12:51:00.229Z,61.10
2018-07-22T12:53:28.592Z,62.00
2018-07-22T12:55:57.054Z,62.90
2018-07-22T12:58:25.506Z,63.50
2018-07-22T13:00:54.079Z,63.80
2018-07-22T13:03:22.570Z,65.40
2018-07-22T13:05:51.041Z,64.60
2018-07-22T13:08:19.506Z,64.90
2018-07-22T13:10:47.877Z,65.80
2018-07-22T13:13:16.290Z,65.70
2018-07-22T13:15:44.771Z,65.00
2018-07-22T13:18:13.237Z,65.50
2018-07-22T13:20:41.630Z,66.30
2018-07-22T13:23:10.114Z,66.20
2018-07-22T13:25:38.508Z,69.50
2018-07-22T13:28:07.190Z,71.20
2018-07-22T13:30:35.571Z,74.30
2018-07-22T13:33:04.110Z,77.10
2018-07-22T13:35:32.495Z,79.20
2018-07-22T13:38:00.946Z,78.00
2018-07-22T13:40:29.280Z,77.70
2018-07-22T13:42:57.708Z,79.60
2018-07-22T13:47:55.135Z,85.10
2018-07-22T13:50:23.593Z,88.80
2018-07-22T13:52:52.015Z,90.50
2018-07-22T13:55:20.380Z,92.40
2018-07-22T13:57:48.795Z,88.90
2018-07-22T14:00:17.490Z,90.90
2018-07-22T14:02:45.918Z,92.20
2018-07-22T14:05:14.501Z,92.50
2018-07-22T14:07:43.098Z,92.90
2018-07-22T14:10:11.636Z,93.40
2018-07-22T14:12:40.052Z,94.80
2018-07-22T14:15:08.806Z,94.00
2018-07-22T14:17:37.206Z,95.60
2018-07-22T14:20:05.835Z,95.80
2018-07-22T14:22:34.287Z,92.50
2018-07-22T14:25:02.733Z,91.10
2018-07-22T14:27:31.293Z,93.20
2018-07-22T14:29:59.697Z,91.80
2018-07-22T14:32:28.126Z,91.70
2018-07-22T14:34:56.631Z,92.30
2018-07-22T14:39:53.262Z,93.70
2018-07-22T14:42:21.650Z,92.60
2018-07-22T14:44:50.033Z,94.50
2018-07-22T14:47:18.518Z,95.40
2018-07-22T14:49:46.857Z,95.60
2018-07-22T14:52:15.290Z,95.40
2018-07-22T14:54:43.795Z,96.40
2018-07-22T14:57:12.279Z,96.60
2018-07-22T14:59:40.632Z,97.40
2018-07-22T15:02:09.168Z,97.10
2018-07-22T15:04:37.579Z,97.00
2018-07-22T15:07:07.073Z,97.30
2018-07-22T15:10:38.365Z,97.40
2018-07-22T15:13:06.836Z,96.60
2018-07-22T15:15:35.204Z,96.40
2018-07-22T15:18:03.606Z,96.40
2018-07-22T15:20:32.056Z,94.40
2018-07-22T15:23:00.532Z,94.80
2018-07-22T15:25:28.920Z,94.90
2018-07-22T15:27:57.392Z,95.50
2018-07-22T15:30:25.759Z,96.10
2018-07-22T15:32:54.117Z,94.90
2018-07-22T15:35:22.524Z,95.50
2018-07-22T15:37:50.918Z,95.60
2018-07-22T15:40:19.364Z,96.30
2018-07-22T15:42:54.569Z,96.40
2018-07-22T15:45:22.965Z,96.20
2018-07-22T15:47:51.454Z,95.60
2018-07-22T15:50:19.825Z,95.60
2018-07-22T15:52:48.270Z,95.40
2018-07-22T15:57:45.007Z,94.20
2018-07-22T16:00:13.483Z,93.00
2018-07-22T16:02:41.902Z,94.10
2018-07-22T16:05:10.370Z,95.20
2018-07-22T16:10:07.184Z,96.00
2018-07-22T16:12:35.698Z,95.90
2018-07-22T16:15:04.925Z,96.00
2018-07-22T16:17:33.387Z,96.90
2018-07-22T16:20:01.838Z,96.10
2018-07-22T16:22:30.321Z,95.50
2018-07-22T16:24:58.801Z,96.00
2018-07-22T16:27:27.356Z,96.70
2018-07-22T16:29:55.842Z,96.30
2018-07-22T16:32:24.303Z,95.50
2018-07-22T16:34:52.764Z,95.10
2018-07-22T16:37:21.212Z,94.00
2018-07-22T16:42:18.099Z,94.70
2018-07-22T16:47:14.841Z,94.70
2018-07-22T16:49:43.190Z,94.80
2018-07-22T16:52:11.579Z,92.80
2018-07-22T16:54:41.030Z,93.30
2018-07-22T16:57:12.675Z,93.20
2018-07-22T16:59:41.093Z,95.10
2018-07-22T17:02:09.700Z,96.30
2018-07-22T17:04:38.130Z,95.10
2018-07-22T17:07:06.587Z,94.20
2018-07-22T17:09:35.006Z,94.00
2018-07-22T17:12:03.378Z,94.60
2018-07-22T17:14:31.787Z,94.00
2018-07-22T17:17:00.216Z,93.50
2018-07-22T17:19:28.853Z,94.40
2018-07-22T17:24:25.444Z,93.80
2018-07-22T17:26:53.906Z,95.10
2018-07-22T17:29:22.384Z,95.10
2018-07-22T17:31:50.948Z,94.60
2018-07-22T17:34:19.380Z,95.30
2018-07-22T17:36:47.815Z,95.40
2018-07-22T17:39:16.290Z,95.40
2018-07-22T17:41:44.712Z,95.00
2018-07-22T17:44:13.136Z,95.40
2018-07-22T17:46:41.615Z,96.60
2018-07-22T17:51:38.519Z,96.30
2018-07-22T17:54:08.350Z,95.40
2018-07-22T17:56:36.902Z,94.50
2018-07-22T17:59:05.559Z,94.50
2018-07-22T18:01:34.202Z,93.40
2018-07-22T18:04:02.623Z,92.90
2018-07-22T18:06:30.993Z,93.40
2018-07-22T18:11:34.917Z,93.60
2018-07-22T18:14:03.515Z,93.00
2018-07-22T18:16:31.955Z,93.10
2018-07-22T18:19:00.370Z,93.10
2018-07-22T18:21:31.779Z,93.30
2018-07-22T18:24:00.222Z,94.10
2018-07-22T18:26:28.676Z,93.80
2018-07-22T18:28:57.181Z,94.00
2018-07-22T18:31:25.709Z,94.30
2018-07-22T18:33:54.163Z,94.90
2018-07-22T18:36:22.742Z,94.80
2018-07-22T18:38:51.296Z,94.60
2018-07-22T18:41:19.831Z,93.60
2018-07-22T18:46:17.125Z,94.20
2018-07-22T18:48:45.608Z,92.70
2018-07-22T18:51:14.224Z,93.60
2018-07-22T18:53:42.995Z,92.80
2018-07-22T18:56:11.917Z,91.90
2018-07-22T18:58:40.698Z,90.90
2018-07-22T19:01:09.563Z,91.30
2018-07-22T19:03:38.399Z,91.80
2018-07-22T19:06:07.256Z,93.60
2018-07-22T19:11:04.835Z,93.10
2018-07-22T19:13:33.643Z,93.20
2018-07-22T19:16:02.441Z,93.30
2018-07-22T19:18:37.983Z,93.80
2018-07-22T19:21:07.005Z,93.00
2018-07-22T19:23:35.866Z,92.30
2018-07-22T19:26:04.859Z,92.50
2018-07-22T19:28:33.603Z,92.50
2018-07-22T19:31:03.712Z,93.10
2018-07-22T19:33:32.476Z,93.00
2018-07-22T19:36:01.281Z,93.20
2018-07-22T19:38:30.147Z,93.20
2018-07-22T19:40:58.918Z,92.80
2018-07-22T19:43:27.765Z,93.80
2018-07-22T19:48:26.061Z,93.90
2018-07-22T19:50:54.896Z,94.20
2018-07-22T19:53:23.760Z,94.50
2018-07-22T19:55:52.615Z,94.60
2018-07-22T19:58:21.517Z,94.80
2018-07-22T20:00:50.369Z,94.80
2018-07-22T20:03:19.288Z,94.70
2018-07-22T20:05:48.167Z,93.90
2018-07-22T20:08:17.154Z,93.50
2018-07-22T20:13:14.778Z,93.70
2018-07-22T20:15:43.650Z,94.00
2018-07-22T20:18:12.597Z,94.10
2018-07-22T20:20:41.394Z,94.10
2018-07-22T20:23:10.292Z,93.60
2018-07-22T20:25:39.234Z,93.60
2018-07-22T20:28:07.747Z,93.70
2018-07-22T20:30:36.276Z,94.10
2018-07-22T20:33:05.263Z,94.10
2018-07-22T20:35:33.870Z,94.40
2018-07-22T20:38:02.766Z,94.50
2018-07-22T20:40:33.268Z,94.70
2018-07-22T20:43:02.236Z,94.70
2018-07-22T20:45:30.731Z,94.70
2018-07-22T20:47:59.226Z,94.90
2018-07-22T20:52:56.146Z,94.70
2018-07-22T20:55:24.656Z,95.10
2018-07-22T20:57:53.316Z,94.70
2018-07-22T21:00:22.417Z,95.00
2018-07-22T21:02:50.827Z,95.00
2018-07-22T21:05:19.370Z,95.40
2018-07-22T21:07:48.065Z,94.70
2018-07-22T21:10:16.591Z,94.70
2018-07-22T21:13:24.052Z,94.70
2018-07-22T21:15:52.631Z,94.70
2018-07-22T21:18:21.167Z,94.50
2018-07-22T21:20:49.697Z,95.30
2018-07-22T21:23:18.172Z,95.10
2018-07-22T21:25:46.651Z,94.80
2018-07-22T21:28:15.074Z,94.70
2018-07-22T21:30:43.970Z,94.30
2018-07-22T21:33:12.401Z,94.30
2018-07-22T21:35:40.812Z,94.00
2018-07-22T21:38:09.366Z,93.70
2018-07-22T21:40:37.835Z,94.40
2018-07-22T21:43:06.296Z,94.20
2018-07-22T21:45:34.728Z,94.70
2018-07-22T21:48:03.332Z,94.70
2018-07-22T21:50:31.848Z,94.60
2018-07-22T21:53:00.312Z,93.80
2018-07-22T21:55:28.717Z,93.50
2018-07-22T21:57:57.230Z,92.90
2018-07-22T22:00:32.356Z,93.20
2018-07-22T22:05:30.348Z,93.70
2018-07-22T22:07:58.761Z,94.60
2018-07-22T22:10:27.432Z,94.60
2018-07-22T22:12:56.063Z,94.90
2018-07-22T22:15:27.411Z,94.20
2018-07-22T22:17:57.171Z,93.70
2018-07-22T22:20:26.671Z,93.80
2018-07-22T22:22:55.202Z,93.30
2018-07-22T22:25:23.590Z,93.30
2018-07-22T22:30:20.220Z,94.40
2018-07-22T22:32:50.188Z,94.60
2018-07-22T22:35:18.588Z,94.60
2018-07-22T22:37:46.984Z,95.10
2018-07-22T22:40:15.961Z,95.30
2018-07-22T22:42:45.324Z,95.20
2018-07-22T22:45:14.222Z,95.60
2018-07-22T22:47:42.702Z,95.10
2018-07-22T22:50:11.178Z,95.30
2018-07-22T22:52:40.223Z,95.20
2018-07-22T22:55:08.966Z,94.80
2018-07-22T22:57:37.364Z,95.10
2018-07-22T23:00:06.498Z,94.80
2018-07-22T23:02:36.259Z,94.60
2018-07-22T23:05:06.958Z,94.60
2018-07-22T23:10:04.490Z,94.20
2018-07-22T23:12:33.046Z,94.10
2018-07-22T23:15:01.407Z,94.20
2018-07-22T23:17:29.841Z,93.70
2018-07-22T23:19:58.315Z,93.80
2018-07-22T23:22:26.814Z,94.00
2018-07-22T23:24:55.167Z,93.90
2018-07-22T23:27:23.517Z,93.70
2018-07-22T23:29:51.865Z,93.80
2018-07-22T23:32:20.252Z,93.80
2018-07-22T23:34:48.598Z,93.70
2018-07-22T23:37:16.954Z,93.40
2018-07-22T23:39:45.444Z,93.30
2018-07-22T23:42:13.815Z,93.30
2018-07-22T23:44:42.258Z,93.90
2018-07-22T23:47:10.620Z,93.50
2018-07-22T23:49:38.991Z,93.70
2018-07-22T23:52:07.413Z,93.90
2018-07-22T23:54:35.805Z,93.20
2018-07-22T23:57:04.240Z,93.80
2018-07-22T23:59:32.585Z,93.90
